sensor_id;sensor_type;location;lat;lon;timestamp;temperature;humidity
24382;DHT22;12502;50.678;7.172;2023-03-14T00:02:01;11.90;99.90
24382;DHT22;12502;50.678;7.172;2023-03-14T00:07:03;11.70;99.90
24382;DHT22;12502;50.678;7.172;2023-03-14T00:12:04;11.70;99.90
24382;DHT22;12502;50.678;7.172;2023-03-14T00:17:06;11.70;99.90
24382;DHT22;12502;50.678;7.172;2023-03-14T00:22:08;11.80;99.90
24382;DHT22;12502;50.678;7.172;2023-03-14T00:27:09;11.90;99.90
24382;DHT22;12502;50.678;7.172;2023-03-14T00:32:11;11.90;99.90
24382;DHT22;12502;50.678;7.172;2023-03-14T00:37:13;11.90;99.90
24382;DHT22;12502;50.678;7.172;2023-03-14T00:42:14;11.90;99.90
24382;DHT22;12502;50.678;7.172;2023-03-14T00:47:16;12.00;99.90
24382;DHT22;12502;50.678;7.172;2023-03-14T00:52:17;12.00;99.90
24382;DHT22;12502;50.678;7.172;2023-03-14T00:57:19;12.00;99.90
24382;DHT22;12502;50.678;7.172;2023-03-14T01:02:21;11.90;99.90
24382;DHT22;12502;50.678;7.172;2023-03-14T01:07:22;12.00;99.90
24382;DHT22;12502;50.678;7.172;2023-03-14T01:12:24;11.90;99.90
24382;DHT22;12502;50.678;7.172;2023-03-14T01:17:25;12.00;99.90
24382;DHT22;12502;50.678;7.172;2023-03-14T01:22:27;12.00;99.90
24382;DHT22;12502;50.678;7.172;2023-03-14T01:27:29;11.90;99.90
24382;DHT22;12502;50.678;7.172;2023-03-14T01:32:30;11.80;99.90
24382;DHT22;12502;50.678;7.172;2023-03-14T01:37:32;11.90;99.90
24382;DHT22;12502;50.678;7.172;2023-03-14T01:42:33;11.80;99.90
24382;DHT22;12502;50.678;7.172;2023-03-14T01:47:35;11.80;99.90
24382;DHT22;12502;50.678;7.172;2023-03-14T01:52:38;11.80;99.90
24382;DHT22;12502;50.678;7.172;2023-03-14T01:57:44;11.70;99.90
24382;DHT22;12502;50.678;7.172;2023-03-14T02:02:48;11.60;99.90
24382;DHT22;12502;50.678;7.172;2023-03-14T02:07:53;11.60;99.90
24382;DHT22;12502;50.678;7.172;2023-03-14T02:12:55;11.30;99.90
24382;DHT22;12502;50.678;7.172;2023-03-14T02:17:57;11.20;99.90
24382;DHT22;12502;50.678;7.172;2023-03-14T02:23:00;11.20;99.90
24382;DHT22;12502;50.678;7.172;2023-03-14T02:28:01;11.20;99.90
24382;DHT22;12502;50.678;7.172;2023-03-14T02:33:04;11.20;99.90
24382;DHT22;12502;50.678;7.172;2023-03-14T02:43:26;11.20;99.90
24382;DHT22;12502;50.678;7.172;2023-03-14T02:48:29;11.20;99.90
24382;DHT22;12502;50.678;7.172;2023-03-14T02:53:32;11.00;99.90
24382;DHT22;12502;50.678;7.172;2023-03-14T02:58:35;10.90;99.90
24382;DHT22;12502;50.678;7.172;2023-03-14T03:03:36;10.90;99.90
24382;DHT22;12502;50.678;7.172;2023-03-14T03:08:38;10.90;99.90
24382;DHT22;12502;50.678;7.172;2023-03-14T03:13:40;10.80;99.90
24382;DHT22;12502;50.678;7.172;2023-03-14T03:18:41;10.80;99.90
24382;DHT22;12502;50.678;7.172;2023-03-14T03:23:43;10.90;99.90
24382;DHT22;12502;50.678;7.172;2023-03-14T03:28:44;10.80;99.90
24382;DHT22;12502;50.678;7.172;2023-03-14T03:33:46;10.80;99.90
24382;DHT22;12502;50.678;7.172;2023-03-14T03:38:48;10.90;99.90
24382;DHT22;12502;50.678;7.172;2023-03-14T03:43:50;10.90;99.90
24382;DHT22;12502;50.678;7.172;2023-03-14T03:48:55;11.00;99.90
24382;DHT22;12502;50.678;7.172;2023-03-14T03:53:57;11.00;99.90
24382;DHT22;12502;50.678;7.172;2023-03-14T03:58:58;11.10;99.90
24382;DHT22;12502;50.678;7.172;2023-03-14T04:04:00;11.20;99.90
24382;DHT22;12502;50.678;7.172;2023-03-14T04:09:02;11.10;99.90
24382;DHT22;12502;50.678;7.172;2023-03-14T04:14:04;11.10;99.90
24382;DHT22;12502;50.678;7.172;2023-03-14T04:19:06;11.20;99.90
24382;DHT22;12502;50.678;7.172;2023-03-14T04:24:08;11.20;99.90
24382;DHT22;12502;50.678;7.172;2023-03-14T04:29:09;11.20;99.90
24382;DHT22;12502;50.678;7.172;2023-03-14T04:34:13;11.30;99.90
24382;DHT22;12502;50.678;7.172;2023-03-14T04:39:15;11.30;99.90
24382;DHT22;12502;50.678;7.172;2023-03-14T04:44:16;11.40;99.90
24382;DHT22;12502;50.678;7.172;2023-03-14T04:49:18;11.40;99.90
24382;DHT22;12502;50.678;7.172;2023-03-14T05:00:23;11.40;99.90
24382;DHT22;12502;50.678;7.172;2023-03-14T05:05:25;11.30;99.90
24382;DHT22;12502;50.678;7.172;2023-03-14T05:10:27;11.30;99.90
24382;DHT22;12502;50.678;7.172;2023-03-14T05:15:28;11.20;99.90
24382;DHT22;12502;50.678;7.172;2023-03-14T05:20:30;11.10;99.90
24382;DHT22;12502;50.678;7.172;2023-03-14T05:25:31;11.00;99.90
24382;DHT22;12502;50.678;7.172;2023-03-14T05:30:33;10.90;99.90
24382;DHT22;12502;50.678;7.172;2023-03-14T05:35:35;10.90;99.90
24382;DHT22;12502;50.678;7.172;2023-03-14T05:40:36;10.80;99.90
24382;DHT22;12502;50.678;7.172;2023-03-14T05:45:38;10.70;99.90
24382;DHT22;12502;50.678;7.172;2023-03-14T05:50:40;10.60;99.90
24382;DHT22;12502;50.678;7.172;2023-03-14T05:55:41;10.50;99.90
24382;DHT22;12502;50.678;7.172;2023-03-14T06:01:02;10.60;99.90
24382;DHT22;12502;50.678;7.172;2023-03-14T06:06:04;10.50;99.90
24382;DHT22;12502;50.678;7.172;2023-03-14T06:11:06;10.50;99.90
24382;DHT22;12502;50.678;7.172;2023-03-14T06:16:08;10.50;99.90
24382;DHT22;12502;50.678;7.172;2023-03-14T06:21:10;10.30;99.90
24382;DHT22;12502;50.678;7.172;2023-03-14T06:26:11;10.30;99.90
24382;DHT22;12502;50.678;7.172;2023-03-14T06:31:13;10.30;99.90
24382;DHT22;12502;50.678;7.172;2023-03-14T06:36:15;10.10;99.90
24382;DHT22;12502;50.678;7.172;2023-03-14T06:41:16;10.20;99.90
24382;DHT22;12502;50.678;7.172;2023-03-14T06:46:18;10.20;99.90
24382;DHT22;12502;50.678;7.172;2023-03-14T06:51:20;10.20;99.90
24382;DHT22;12502;50.678;7.172;2023-03-14T06:56:21;10.20;99.90
24382;DHT22;12502;50.678;7.172;2023-03-14T07:01:24;10.20;99.90
24382;DHT22;12502;50.678;7.172;2023-03-14T07:06:26;10.40;99.90
24382;DHT22;12502;50.678;7.172;2023-03-14T07:11:28;10.50;99.90
24382;DHT22;12502;50.678;7.172;2023-03-14T07:16:29;10.50;99.90
24382;DHT22;12502;50.678;7.172;2023-03-14T07:21:34;10.70;99.90
24382;DHT22;12502;50.678;7.172;2023-03-14T07:26:36;10.90;99.90
24382;DHT22;12502;50.678;7.172;2023-03-14T07:31:37;10.80;99.90
24382;DHT22;12502;50.678;7.172;2023-03-14T07:36:39;11.10;99.90
24382;DHT22;12502;50.678;7.172;2023-03-14T07:41:40;11.30;99.90
24382;DHT22;12502;50.678;7.172;2023-03-14T07:46:42;11.40;99.90
24382;DHT22;12502;50.678;7.172;2023-03-14T07:51:44;11.70;99.90
24382;DHT22;12502;50.678;7.172;2023-03-14T07:56:48;11.90;99.90
24382;DHT22;12502;50.678;7.172;2023-03-14T08:01:49;12.00;99.90
24382;DHT22;12502;50.678;7.172;2023-03-14T08:06:51;12.00;99.90
24382;DHT22;12502;50.678;7.172;2023-03-14T08:11:54;12.00;99.90
24382;DHT22;12502;50.678;7.172;2023-03-14T08:16:58;12.50;99.90
24382;DHT22;12502;50.678;7.172;2023-03-14T08:21:59;12.80;99.90
24382;DHT22;12502;50.678;7.172;2023-03-14T08:27:01;12.80;99.90
24382;DHT22;12502;50.678;7.172;2023-03-14T08:32:03;12.80;99.90
24382;DHT22;12502;50.678;7.172;2023-03-14T08:37:05;12.80;99.90
24382;DHT22;12502;50.678;7.172;2023-03-14T08:42:17;12.70;99.90
24382;DHT22;12502;50.678;7.172;2023-03-14T08:47:19;12.70;99.90
24382;DHT22;12502;50.678;7.172;2023-03-14T08:52:21;12.60;99.90
24382;DHT22;12502;50.678;7.172;2023-03-14T08:57:22;12.60;99.90
24382;DHT22;12502;50.678;7.172;2023-03-14T09:02:28;12.60;99.90
24382;DHT22;12502;50.678;7.172;2023-03-14T09:07:30;12.70;99.90
24382;DHT22;12502;50.678;7.172;2023-03-14T09:12:32;12.80;99.90
24382;DHT22;12502;50.678;7.172;2023-03-14T09:17:33;12.70;99.90
24382;DHT22;12502;50.678;7.172;2023-03-14T09:22:35;12.50;99.90
24382;DHT22;12502;50.678;7.172;2023-03-14T09:27:37;12.40;99.90
24382;DHT22;12502;50.678;7.172;2023-03-14T09:32:38;12.00;99.90
24382;DHT22;12502;50.678;7.172;2023-03-14T09:37:40;11.80;99.90
24382;DHT22;12502;50.678;7.172;2023-03-14T09:42:42;11.80;99.90
24382;DHT22;12502;50.678;7.172;2023-03-14T09:47:44;11.80;99.90
24382;DHT22;12502;50.678;7.172;2023-03-14T09:53:02;11.60;99.90
24382;DHT22;12502;50.678;7.172;2023-03-14T09:58:08;11.60;99.90
24382;DHT22;12502;50.678;7.172;2023-03-14T10:08:13;11.20;99.90
24382;DHT22;12502;50.678;7.172;2023-03-14T10:18:16;9.70;99.90
24382;DHT22;12502;50.678;7.172;2023-03-14T10:23:27;9.50;99.90
24382;DHT22;12502;50.678;7.172;2023-03-14T10:28:31;9.20;99.90
24382;DHT22;12502;50.678;7.172;2023-03-14T10:33:35;9.10;99.90
24382;DHT22;12502;50.678;7.172;2023-03-14T10:38:37;8.80;99.90
24382;DHT22;12502;50.678;7.172;2023-03-14T10:43:39;8.70;99.90
24382;DHT22;12502;50.678;7.172;2023-03-14T10:48:42;8.60;99.90
24382;DHT22;12502;50.678;7.172;2023-03-14T10:58:58;8.50;99.90
24382;DHT22;12502;50.678;7.172;2023-03-14T11:04:14;8.40;99.90
24382;DHT22;12502;50.678;7.172;2023-03-14T11:09:29;8.50;99.90
24382;DHT22;12502;50.678;7.172;2023-03-14T11:14:35;8.40;99.90
24382;DHT22;12502;50.678;7.172;2023-03-14T11:24:58;8.40;99.90
24382;DHT22;12502;50.678;7.172;2023-03-14T11:35:16;8.50;99.90
24382;DHT22;12502;50.678;7.172;2023-03-14T11:40:22;8.60;99.90
24382;DHT22;12502;50.678;7.172;2023-03-14T11:45:27;8.50;99.90
24382;DHT22;12502;50.678;7.172;2023-03-14T11:50:30;8.60;99.90
24382;DHT22;12502;50.678;7.172;2023-03-14T11:55:34;8.80;99.90
24382;DHT22;12502;50.678;7.172;2023-03-14T12:00:37;9.00;99.90
24382;DHT22;12502;50.678;7.172;2023-03-14T12:05:46;8.90;99.90
24382;DHT22;12502;50.678;7.172;2023-03-14T12:10:51;9.00;99.90
24382;DHT22;12502;50.678;7.172;2023-03-14T12:15:54;9.30;99.90
24382;DHT22;12502;50.678;7.172;2023-03-14T12:20:57;9.50;99.90
24382;DHT22;12502;50.678;7.172;2023-03-14T12:42:02;7.20;99.90
24382;DHT22;12502;50.678;7.172;2023-03-14T12:52:20;7.00;99.90
24382;DHT22;12502;50.678;7.172;2023-03-14T13:07:38;7.20;99.90
24382;DHT22;12502;50.678;7.172;2023-03-14T13:18:36;7.50;99.90
24382;DHT22;12502;50.678;7.172;2023-03-14T13:23:38;7.70;99.90
24382;DHT22;12502;50.678;7.172;2023-03-14T13:28:40;7.90;99.90
24382;DHT22;12502;50.678;7.172;2023-03-14T13:33:42;7.80;99.90
24382;DHT22;12502;50.678;7.172;2023-03-14T13:38:44;7.40;99.90
24382;DHT22;12502;50.678;7.172;2023-03-14T13:43:45;7.20;99.90
24382;DHT22;12502;50.678;7.172;2023-03-14T13:48:48;6.80;99.90
24382;DHT22;12502;50.678;7.172;2023-03-14T13:53:54;6.60;99.90
24382;DHT22;12502;50.678;7.172;2023-03-14T13:58:56;6.60;99.90
24382;DHT22;12502;50.678;7.172;2023-03-14T14:03:58;6.20;99.90
24382;DHT22;12502;50.678;7.172;2023-03-14T14:09:14;5.90;99.90
24382;DHT22;12502;50.678;7.172;2023-03-14T14:14:25;6.10;99.90
24382;DHT22;12502;50.678;7.172;2023-03-14T14:19:28;6.30;99.90
24382;DHT22;12502;50.678;7.172;2023-03-14T14:24:31;6.40;99.90
24382;DHT22;12502;50.678;7.172;2023-03-14T14:29:33;6.40;99.90
24382;DHT22;12502;50.678;7.172;2023-03-14T14:34:39;6.30;99.90
24382;DHT22;12502;50.678;7.172;2023-03-14T14:39:42;6.10;99.90
24382;DHT22;12502;50.678;7.172;2023-03-14T14:44:43;6.00;99.90
24382;DHT22;12502;50.678;7.172;2023-03-14T14:49:51;5.80;99.90
24382;DHT22;12502;50.678;7.172;2023-03-14T14:54:54;5.70;99.90
24382;DHT22;12502;50.678;7.172;2023-03-14T15:00:06;5.70;99.90
24382;DHT22;12502;50.678;7.172;2023-03-14T15:05:13;5.60;99.90
24382;DHT22;12502;50.678;7.172;2023-03-14T15:10:16;5.50;99.90
24382;DHT22;12502;50.678;7.172;2023-03-14T15:15:18;5.40;99.90
24382;DHT22;12502;50.678;7.172;2023-03-14T15:20:19;5.30;99.90
24382;DHT22;12502;50.678;7.172;2023-03-14T15:25:24;5.30;99.90
24382;DHT22;12502;50.678;7.172;2023-03-14T15:30:50;5.20;99.90
24382;DHT22;12502;50.678;7.172;2023-03-14T15:35:53;5.10;99.90
24382;DHT22;12502;50.678;7.172;2023-03-14T15:40:55;4.90;99.90
24382;DHT22;12502;50.678;7.172;2023-03-14T15:45:56;5.00;99.90
24382;DHT22;12502;50.678;7.172;2023-03-14T15:50:58;5.00;99.90
24382;DHT22;12502;50.678;7.172;2023-03-14T15:56:00;5.00;99.90
24382;DHT22;12502;50.678;7.172;2023-03-14T16:01:02;5.00;99.90
24382;DHT22;12502;50.678;7.172;2023-03-14T16:06:04;4.90;99.90
24382;DHT22;12502;50.678;7.172;2023-03-14T16:11:05;5.00;99.90
24382;DHT22;12502;50.678;7.172;2023-03-14T16:16:07;4.90;99.90
24382;DHT22;12502;50.678;7.172;2023-03-14T16:21:13;4.90;99.90
24382;DHT22;12502;50.678;7.172;2023-03-14T16:26:16;4.90;99.90
24382;DHT22;12502;50.678;7.172;2023-03-14T16:31:18;4.80;99.90
24382;DHT22;12502;50.678;7.172;2023-03-14T16:36:21;4.90;99.90
24382;DHT22;12502;50.678;7.172;2023-03-14T16:41:23;4.90;99.90
24382;DHT22;12502;50.678;7.172;2023-03-14T16:46:25;4.90;99.90
24382;DHT22;12502;50.678;7.172;2023-03-14T16:51:28;4.90;99.90
24382;DHT22;12502;50.678;7.172;2023-03-14T16:56:30;4.90;99.90
24382;DHT22;12502;50.678;7.172;2023-03-14T17:01:32;4.90;99.90
24382;DHT22;12502;50.678;7.172;2023-03-14T17:06:34;5.00;99.90
24382;DHT22;12502;50.678;7.172;2023-03-14T17:11:39;4.90;99.90
24382;DHT22;12502;50.678;7.172;2023-03-14T17:16:40;4.90;99.90
24382;DHT22;12502;50.678;7.172;2023-03-14T17:21:42;5.00;99.90
24382;DHT22;12502;50.678;7.172;2023-03-14T17:26:44;4.90;99.90
24382;DHT22;12502;50.678;7.172;2023-03-14T17:31:45;5.00;99.90
24382;DHT22;12502;50.678;7.172;2023-03-14T17:36:47;5.00;99.90
24382;DHT22;12502;50.678;7.172;2023-03-14T17:41:49;5.00;99.90
24382;DHT22;12502;50.678;7.172;2023-03-14T17:46:50;5.10;99.90
24382;DHT22;12502;50.678;7.172;2023-03-14T17:51:54;5.10;99.90
24382;DHT22;12502;50.678;7.172;2023-03-14T17:56:55;5.10;99.90
24382;DHT22;12502;50.678;7.172;2023-03-14T18:01:58;5.10;99.90
24382;DHT22;12502;50.678;7.172;2023-03-14T18:07:01;5.10;99.90
24382;DHT22;12502;50.678;7.172;2023-03-14T18:12:03;5.10;99.90
24382;DHT22;12502;50.678;7.172;2023-03-14T18:17:09;5.20;99.90
24382;DHT22;12502;50.678;7.172;2023-03-14T18:22:13;5.20;99.90
24382;DHT22;12502;50.678;7.172;2023-03-14T18:27:16;5.20;99.90
24382;DHT22;12502;50.678;7.172;2023-03-14T18:32:18;5.10;99.90
24382;DHT22;12502;50.678;7.172;2023-03-14T18:37:20;5.10;99.90
24382;DHT22;12502;50.678;7.172;2023-03-14T18:42:21;5.00;99.90
24382;DHT22;12502;50.678;7.172;2023-03-14T18:47:23;4.90;99.90
24382;DHT22;12502;50.678;7.172;2023-03-14T18:52:26;4.80;99.90
24382;DHT22;12502;50.678;7.172;2023-03-14T18:57:28;4.80;99.90
24382;DHT22;12502;50.678;7.172;2023-03-14T19:02:30;4.80;99.90
24382;DHT22;12502;50.678;7.172;2023-03-14T19:07:32;4.70;99.90
24382;DHT22;12502;50.678;7.172;2023-03-14T19:12:34;4.70;99.90
24382;DHT22;12502;50.678;7.172;2023-03-14T19:17:36;4.60;99.90
24382;DHT22;12502;50.678;7.172;2023-03-14T19:22:37;4.70;99.90
24382;DHT22;12502;50.678;7.172;2023-03-14T19:27:39;4.70;99.90
24382;DHT22;12502;50.678;7.172;2023-03-14T19:32:41;4.70;99.90
24382;DHT22;12502;50.678;7.172;2023-03-14T19:37:42;4.70;99.90
24382;DHT22;12502;50.678;7.172;2023-03-14T19:42:45;4.70;99.90
24382;DHT22;12502;50.678;7.172;2023-03-14T19:47:47;4.70;99.90
24382;DHT22;12502;50.678;7.172;2023-03-14T19:52:48;4.60;99.90
24382;DHT22;12502;50.678;7.172;2023-03-14T19:57:51;4.50;99.90
24382;DHT22;12502;50.678;7.172;2023-03-14T20:02:52;4.50;99.90
24382;DHT22;12502;50.678;7.172;2023-03-14T20:07:54;4.60;99.90
24382;DHT22;12502;50.678;7.172;2023-03-14T20:12:56;4.50;99.90
24382;DHT22;12502;50.678;7.172;2023-03-14T20:18:03;4.50;99.90
24382;DHT22;12502;50.678;7.172;2023-03-14T20:23:04;4.40;99.90
24382;DHT22;12502;50.678;7.172;2023-03-14T20:28:06;4.30;99.90
24382;DHT22;12502;50.678;7.172;2023-03-14T20:33:08;4.40;99.90
24382;DHT22;12502;50.678;7.172;2023-03-14T20:38:09;4.40;99.90
24382;DHT22;12502;50.678;7.172;2023-03-14T20:43:11;4.30;99.90
24382;DHT22;12502;50.678;7.172;2023-03-14T20:48:12;4.20;99.90
24382;DHT22;12502;50.678;7.172;2023-03-14T20:53:14;4.10;99.90
24382;DHT22;12502;50.678;7.172;2023-03-14T20:58:16;4.10;99.90
24382;DHT22;12502;50.678;7.172;2023-03-14T21:03:18;4.00;99.90
24382;DHT22;12502;50.678;7.172;2023-03-14T21:08:21;3.90;99.90
24382;DHT22;12502;50.678;7.172;2023-03-14T21:13:23;3.80;99.90
24382;DHT22;12502;50.678;7.172;2023-03-14T21:18:24;3.70;99.90
24382;DHT22;12502;50.678;7.172;2023-03-14T21:23:26;3.70;99.90
24382;DHT22;12502;50.678;7.172;2023-03-14T21:28:28;3.50;99.90
24382;DHT22;12502;50.678;7.172;2023-03-14T21:33:29;3.40;99.90
24382;DHT22;12502;50.678;7.172;2023-03-14T21:38:31;3.30;99.90
24382;DHT22;12502;50.678;7.172;2023-03-14T21:43:33;3.20;99.90
24382;DHT22;12502;50.678;7.172;2023-03-14T21:48:34;3.10;99.90
24382;DHT22;12502;50.678;7.172;2023-03-14T21:53:36;3.00;99.90
24382;DHT22;12502;50.678;7.172;2023-03-14T21:58:39;2.90;99.90
24382;DHT22;12502;50.678;7.172;2023-03-14T22:03:41;2.90;99.90
24382;DHT22;12502;50.678;7.172;2023-03-14T22:08:46;2.80;99.90
24382;DHT22;12502;50.678;7.172;2023-03-14T22:13:48;2.80;99.90
24382;DHT22;12502;50.678;7.172;2023-03-14T22:18:50;2.60;99.90
24382;DHT22;12502;50.678;7.172;2023-03-14T22:23:51;2.70;99.90
24382;DHT22;12502;50.678;7.172;2023-03-14T22:28:53;2.60;99.90
24382;DHT22;12502;50.678;7.172;2023-03-14T22:33:55;2.60;99.90
24382;DHT22;12502;50.678;7.172;2023-03-14T22:38:56;2.50;99.90
24382;DHT22;12502;50.678;7.172;2023-03-14T22:43:58;2.50;99.90
24382;DHT22;12502;50.678;7.172;2023-03-14T22:49:00;2.50;99.90
24382;DHT22;12502;50.678;7.172;2023-03-14T22:54:02;2.50;99.90
24382;DHT22;12502;50.678;7.172;2023-03-14T22:59:04;2.50;99.90
24382;DHT22;12502;50.678;7.172;2023-03-14T23:04:06;2.50;99.90
24382;DHT22;12502;50.678;7.172;2023-03-14T23:09:08;2.40;99.90
24382;DHT22;12502;50.678;7.172;2023-03-14T23:14:09;2.50;99.90
24382;DHT22;12502;50.678;7.172;2023-03-14T23:19:11;2.40;99.90
24382;DHT22;12502;50.678;7.172;2023-03-14T23:24:13;2.40;99.90
24382;DHT22;12502;50.678;7.172;2023-03-14T23:29:15;2.40;99.90
24382;DHT22;12502;50.678;7.172;2023-03-14T23:34:16;2.40;99.90
24382;DHT22;12502;50.678;7.172;2023-03-14T23:39:18;2.40;99.90
24382;DHT22;12502;50.678;7.172;2023-03-14T23:44:19;2.30;99.90
24382;DHT22;12502;50.678;7.172;2023-03-14T23:49:23;2.30;99.90
24382;DHT22;12502;50.678;7.172;2023-03-14T23:54:25;2.20;99.90
24382;DHT22;12502;50.678;7.172;2023-03-14T23:59:26;2.20;99.90
